sensor_id;sensor_type;location;lat;lon;timestamp;pressure;altitude;pressure_sealevel;temperature;humidity
35676;BME280;21790;42.668;23.298;2024-01-25T14:40:21;94910.69;;;13.50;35.98
35676;BME280;21790;42.668;23.298;2024-01-25T14:45:27;94912.66;;;13.35;36.18
35676;BME280;21790;42.668;23.298;2024-01-25T14:47:56;94900.47;;;13.32;36.22
35676;BME280;21790;42.668;23.298;2024-01-25T14:53:34;94912.53;;;13.68;35.51
35676;BME280;21790;42.668;23.298;2024-01-25T14:56:15;94911.69;;;13.38;36.22
35676;BME280;21790;42.668;23.298;2024-01-25T14:58:56;94914.75;;;13.25;36.41
35676;BME280;21790;42.668;23.298;2024-01-25T15:01:23;94912.00;;;13.16;36.50
35676;BME280;21790;42.668;23.298;2024-01-25T15:03:55;94912.97;;;13.13;36.74
35676;BME280;21790;42.668;23.298;2024-01-25T15:06:33;94922.06;;;13.14;36.89
35676;BME280;21790;42.668;23.298;2024-01-25T15:09:00;94921.81;;;13.26;36.51
35676;BME280;21790;42.668;23.298;2024-01-25T15:11:35;94911.69;;;13.76;44.55
35676;BME280;21790;42.668;23.298;2024-01-25T15:14:05;94920.75;;;14.80;40.57
35676;BME280;21790;42.668;23.298;2024-01-25T15:19:02;94910.03;;;15.28;36.51
35676;BME280;21790;42.668;23.298;2024-01-25T15:21:48;94913.31;;;15.46;36.18
35676;BME280;21790;42.668;23.298;2024-01-25T15:24:38;94909.38;;;15.38;33.64
35676;BME280;21790;42.668;23.298;2024-01-25T15:27:10;94907.00;;;15.11;34.00
35676;BME280;21790;42.668;23.298;2024-01-25T15:29:55;94916.44;;;14.79;34.34
35676;BME280;21790;42.668;23.298;2024-01-25T15:35:54;94936.34;;;14.28;34.93
35676;BME280;21790;42.668;23.298;2024-01-25T15:41:43;94923.19;;;13.99;35.40
35676;BME280;21790;42.668;23.298;2024-01-25T15:47:37;94931.88;;;13.62;36.09
35676;BME280;21790;42.668;23.298;2024-01-25T15:50:04;94916.88;;;13.69;36.19
35676;BME280;21790;42.668;23.298;2024-01-25T15:52:34;94927.38;;;13.65;36.30
35676;BME280;21790;42.668;23.298;2024-01-25T16:00:18;94930.97;;;13.80;36.19
35676;BME280;21790;42.668;23.298;2024-01-25T16:02:44;94929.22;;;13.82;36.11
35676;BME280;21790;42.668;23.298;2024-01-25T16:05:17;94929.38;;;13.64;36.58
35676;BME280;21790;42.668;23.298;2024-01-25T16:07:44;94927.56;;;13.61;36.62
35676;BME280;21790;42.668;23.298;2024-01-25T16:10:11;94929.22;;;13.68;36.92
35676;BME280;21790;42.668;23.298;2024-01-25T16:33:26;94956.41;;;13.40;37.44
35676;BME280;21790;42.668;23.298;2024-01-25T16:35:52;94958.53;;;13.45;37.61
35676;BME280;21790;42.668;23.298;2024-01-25T16:38:18;94962.63;;;13.35;37.57
35676;BME280;21790;42.668;23.298;2024-01-25T17:06:34;95020.94;;;13.26;38.55
35676;BME280;21790;42.668;23.298;2024-01-25T17:09:04;95017.75;;;13.42;38.33
35676;BME280;21790;42.668;23.298;2024-01-25T17:11:31;95019.25;;;13.28;38.50
35676;BME280;21790;42.668;23.298;2024-01-25T17:14:03;95017.94;;;13.38;38.65
35676;BME280;21790;42.668;23.298;2024-01-25T17:16:30;95027.28;;;13.26;38.80
35676;BME280;21790;42.668;23.298;2024-01-25T17:21:36;95018.91;;;13.35;38.81
35676;BME280;21790;42.668;23.298;2024-01-25T17:44:48;95036.78;;;13.02;39.45
35676;BME280;21790;42.668;23.298;2024-01-25T17:47:16;95032.69;;;12.79;39.83
35676;BME280;21790;42.668;23.298;2024-01-25T17:49:48;95036.56;;;12.81;39.97
35676;BME280;21790;42.668;23.298;2024-01-25T17:52:13;95038.38;;;12.84;39.58
35676;BME280;21790;42.668;23.298;2024-01-25T18:12:45;94990.66;;;12.20;40.03
35676;BME280;21790;42.668;23.298;2024-01-25T18:15:11;94970.06;;;12.12;40.09
35676;BME280;21790;42.668;23.298;2024-01-25T18:17:44;94973.94;;;12.05;40.57
35676;BME280;21790;42.668;23.298;2024-01-25T18:20:15;94966.69;;;12.08;40.14
35676;BME280;21790;42.668;23.298;2024-01-25T18:30:31;94995.69;;;12.49;39.40
35676;BME280;21790;42.668;23.298;2024-01-25T18:38:13;94983.97;;;12.54;39.03
35676;BME280;21790;42.668;23.298;2024-01-25T18:40:39;94987.63;;;12.60;38.99
35676;BME280;21790;42.668;23.298;2024-01-25T18:43:05;95001.53;;;12.51;39.12
35676;BME280;21790;42.668;23.298;2024-01-25T18:45:33;94977.97;;;12.46;38.85
35676;BME280;21790;42.668;23.298;2024-01-25T18:48:00;94992.66;;;12.20;39.32
35676;BME280;21790;42.668;23.298;2024-01-25T18:58:13;94967.06;;;12.34;38.61
35676;BME280;21790;42.668;23.298;2024-01-25T19:16:11;95022.81;;;12.36;38.48
35676;BME280;21790;42.668;23.298;2024-01-25T19:18:38;95014.53;;;13.20;43.83
35676;BME280;21790;42.668;23.298;2024-01-25T19:58:27;95018.59;;;12.58;38.59
35676;BME280;21790;42.668;23.298;2024-01-25T20:00:55;95008.88;;;12.63;38.70
35676;BME280;21790;42.668;23.298;2024-01-25T20:03:24;95015.88;;;12.40;38.98
35676;BME280;21790;42.668;23.298;2024-01-25T20:05:58;95019.28;;;12.35;39.38
35676;BME280;21790;42.668;23.298;2024-01-25T20:08:28;95016.59;;;12.50;38.90
35676;BME280;21790;42.668;23.298;2024-01-25T20:13:27;95040.09;;;12.22;39.41
35676;BME280;21790;42.668;23.298;2024-01-25T20:15:56;95030.19;;;12.39;39.24
35676;BME280;21790;42.668;23.298;2024-01-25T20:18:25;95027.91;;;12.28;39.28
35676;BME280;21790;42.668;23.298;2024-01-25T20:20:58;95030.81;;;12.43;39.18
35676;BME280;21790;42.668;23.298;2024-01-25T20:23:30;95040.78;;;12.58;39.18
35676;BME280;21790;42.668;23.298;2024-01-25T20:28:55;95033.91;;;12.36;39.46
35676;BME280;21790;42.668;23.298;2024-01-25T20:34:30;95036.56;;;11.85;40.20
35676;BME280;21790;42.668;23.298;2024-01-25T20:40:04;95051.31;;;12.09;39.98
35676;BME280;21790;42.668;23.298;2024-01-25T20:45:39;95041.13;;;12.33;39.26
35676;BME280;21790;42.668;23.298;2024-01-25T20:53:35;95023.94;;;11.74;39.43
35676;BME280;21790;42.668;23.298;2024-01-25T20:59:09;95030.25;;;11.84;39.24
35676;BME280;21790;42.668;23.298;2024-01-25T21:04:51;95007.91;;;11.60;39.51
35676;BME280;21790;42.668;23.298;2024-01-25T21:07:20;95008.88;;;11.76;39.47
35676;BME280;21790;42.668;23.298;2024-01-25T21:09:48;95012.09;;;11.92;39.05
35676;BME280;21790;42.668;23.298;2024-01-25T21:12:15;95008.09;;;12.02;39.05
35676;BME280;21790;42.668;23.298;2024-01-25T21:14:45;95006.84;;;11.85;39.01
35676;BME280;21790;42.668;23.298;2024-01-25T21:17:17;95005.59;;;11.59;39.46
35676;BME280;21790;42.668;23.298;2024-01-25T21:19:52;95019.16;;;11.75;39.05
35676;BME280;21790;42.668;23.298;2024-01-25T21:22:18;95017.28;;;11.45;39.24
35676;BME280;21790;42.668;23.298;2024-01-25T21:24:45;95030.38;;;10.95;39.97
35676;BME280;21790;42.668;23.298;2024-01-25T21:27:15;95032.97;;;11.48;39.51
35676;BME280;21790;42.668;23.298;2024-01-25T21:29:50;95036.38;;;11.61;39.26
35676;BME280;21790;42.668;23.298;2024-01-25T21:32:35;95035.09;;;11.44;39.29
35676;BME280;21790;42.668;23.298;2024-01-25T21:35:03;95039.38;;;11.36;39.09
35676;BME280;21790;42.668;23.298;2024-01-25T21:37:36;95029.84;;;11.27;39.31
35676;BME280;21790;42.668;23.298;2024-01-25T21:40:05;95026.03;;;11.43;39.40
35676;BME280;21790;42.668;23.298;2024-01-25T21:42:38;95038.81;;;11.50;38.73
35676;BME280;21790;42.668;23.298;2024-01-25T21:45:19;95037.03;;;11.07;39.58
35676;BME280;21790;42.668;23.298;2024-01-25T21:50:30;95037.16;;;11.03;39.35
35676;BME280;21790;42.668;23.298;2024-01-25T21:53:04;95030.03;;;11.51;38.89
35676;BME280;21790;42.668;23.298;2024-01-25T21:55:32;95033.72;;;11.48;38.86
35676;BME280;21790;42.668;23.298;2024-01-25T21:57:58;95026.06;;;11.61;38.57
35676;BME280;21790;42.668;23.298;2024-01-25T22:00:29;95026.09;;;11.98;37.76
35676;BME280;21790;42.668;23.298;2024-01-25T22:02:59;95032.25;;;12.02;37.80
35676;BME280;21790;42.668;23.298;2024-01-25T22:05:27;95024.09;;;11.80;37.75
35676;BME280;21790;42.668;23.298;2024-01-25T22:07:54;95022.00;;;11.26;38.39
35676;BME280;21790;42.668;23.298;2024-01-25T22:10:22;95036.34;;;11.43;38.36
35676;BME280;21790;42.668;23.298;2024-01-25T22:13:04;95029.03;;;11.76;37.66
35676;BME280;21790;42.668;23.298;2024-01-25T22:15:32;95039.97;;;11.89;37.35
35676;BME280;21790;42.668;23.298;2024-01-25T22:33:36;95040.94;;;11.37;38.00
35676;BME280;21790;42.668;23.298;2024-01-25T22:36:29;95064.34;;;11.54;37.80
35676;BME280;21790;42.668;23.298;2024-01-25T22:42:22;95041.88;;;11.43;37.99
35676;BME280;21790;42.668;23.298;2024-01-25T22:44:49;95056.66;;;11.58;37.67
35676;BME280;21790;42.668;23.298;2024-01-25T22:47:18;95046.34;;;11.67;37.51
35676;BME280;21790;42.668;23.298;2024-01-25T22:49:46;95030.47;;;11.41;37.71
35676;BME280;21790;42.668;23.298;2024-01-25T22:52:12;95021.59;;;11.55;37.50
35676;BME280;21790;42.668;23.298;2024-01-25T22:54:39;95014.06;;;11.55;37.50
35676;BME280;21790;42.668;23.298;2024-01-25T23:00:26;95040.41;;;11.96;36.95
35676;BME280;21790;42.668;23.298;2024-01-25T23:03:07;95034.25;;;11.92;37.08
35676;BME280;21790;42.668;23.298;2024-01-25T23:08:57;95001.91;;;11.62;37.08
35676;BME280;21790;42.668;23.298;2024-01-25T23:14:37;95036.84;;;12.23;36.48
35676;BME280;21790;42.668;23.298;2024-01-25T23:17:04;95020.09;;;11.81;36.78
35676;BME280;21790;42.668;23.298;2024-01-25T23:19:31;95002.69;;;11.71;36.93
35676;BME280;21790;42.668;23.298;2024-01-25T23:22:01;95020.41;;;11.74;36.95
35676;BME280;21790;42.668;23.298;2024-01-25T23:24:28;95031.50;;;11.83;36.51
35676;BME280;21790;42.668;23.298;2024-01-25T23:26:56;95019.03;;;11.88;36.77
35676;BME280;21790;42.668;23.298;2024-01-25T23:29:27;95018.72;;;11.86;36.70
35676;BME280;21790;42.668;23.298;2024-01-25T23:31:54;95025.19;;;11.83;36.68
35676;BME280;21790;42.668;23.298;2024-01-25T23:40:17;95027.78;;;11.95;36.67
35676;BME280;21790;42.668;23.298;2024-01-25T23:42:43;95008.88;;;11.76;36.65
35676;BME280;21790;42.668;23.298;2024-01-25T23:45:09;94997.78;;;11.85;36.23
35676;BME280;21790;42.668;23.298;2024-01-25T23:47:36;95032.41;;;11.98;36.52
35676;BME280;21790;42.668;23.298;2024-01-25T23:50:09;95005.16;;;11.97;35.97
35676;BME280;21790;42.668;23.298;2024-01-25T23:52:37;95016.06;;;11.55;36.74
35676;BME280;21790;42.668;23.298;2024-01-25T23:55:04;95040.56;;;11.84;36.50
35676;BME280;21790;42.668;23.298;2024-01-25T23:57:35;95031.34;;;12.05;36.16
